Time;durP1;ratioP1;P1;durP2;ratioP2;P2;SDS_P1;SDS_P2;PMS_P1;PMS_P2;Temp;Humidity;BMP_temperature;BMP_pressure;BME280_temperature;BME280_humidity;BME280_pressure;Samples;Min_cycle;Max_cycle;Signal;HPM_P1;HPM_P2
2022/01/23 00:02:49;;;;;;;10.08;4.55;;;;;;;-1.60;61.49;100367.94;1761527;79;21458;-58
2022/01/23 00:05:18;;;;;;;10.20;5.35;;;;;;;-1.60;61.24;100371.36;1756807;79;21654;-58
2022/01/23 00:07:46;;;;;;;10.45;3.95;;;;;;;-1.61;61.15;100370.97;1753951;79;21144;-58
2022/01/23 00:10:12;;;;;;;7.60;4.53;;;;;;;-1.61;61.12;100366.27;1753907;79;21382;-59
2022/01/23 00:12:50;;;;;;;8.93;4.55;;;;;;;-1.62;61.08;100362.82;1760714;79;21025;-58
2022/01/23 00:17:59;;;;;;;9.08;4.47;;;;;;;-1.58;61.27;100372.18;1740028;80;21058;-58
2022/01/23 00:20:25;;;;;;;10.65;4.42;;;;;;;-1.54;61.47;100374.22;1734478;79;21090;-58
2022/01/23 00:22:57;;;;;;;6.87;4.03;;;;;;;-1.46;61.31;100373.97;1752336;79;21105;-58
2022/01/23 00:30:50;;;;;;;8.25;4.72;;;;;;;-1.38;61.12;100378.45;1761208;79;21051;-58
2022/01/23 00:33:17;;;;;;;10.23;4.90;;;;;;;-1.38;61.11;100381.90;1750777;79;22920;-58
2022/01/23 00:35:47;;;;;;;12.28;4.70;;;;;;;-1.38;60.86;100384.91;1754767;79;21060;-59
2022/01/23 00:38:15;;;;;;;8.50;4.37;;;;;;;-1.42;60.77;100384.16;1754895;79;21048;-59
2022/01/23 00:40:43;;;;;;;6.55;3.47;;;;;;;-1.45;60.86;100382.95;1758046;79;22199;-58
2022/01/23 00:43:35;;;;;;;9.68;5.05;;;;;;;-1.47;60.83;100388.62;1755045;79;21021;-58
2022/01/23 00:46:49;;;;;;;9.00;4.20;;;;;;;-1.51;60.88;100383.16;1755542;79;21233;-59
2022/01/23 00:48:29;;;;;;;8.08;3.47;;;;;;;-1.53;60.87;100386.21;1698367;80;21516;-59
2022/01/23 00:50:53;;;;;;;8.85;5.12;;;;;;;-1.58;60.81;100379.05;1719853;80;21105;-59
2022/01/23 00:53:20;;;;;;;9.08;4.62;;;;;;;-1.65;60.81;100377.09;1739260;80;21386;-59
2022/01/23 00:55:47;;;;;;;9.73;4.72;;;;;;;-1.70;60.90;100372.52;1715780;82;21043;-59
2022/01/23 00:58:14;;;;;;;7.83;4.37;;;;;;;-1.76;61.04;100373.56;1741658;80;21186;-59
2022/01/23 01:00:42;;;;;;;10.08;4.53;;;;;;;-1.79;61.27;100368.48;1738122;81;21606;-59
2022/01/23 01:03:08;;;;;;;9.40;4.35;;;;;;;-1.77;61.39;100361.54;1709116;80;21564;-59
2022/01/23 01:05:35;;;;;;;9.93;4.72;;;;;;;-1.74;61.36;100363.20;1739881;80;21784;-59
2022/01/23 01:08:04;;;;;;;9.13;4.25;;;;;;;-1.75;61.49;100359.78;1738339;80;21023;-59
2022/01/23 01:10:43;;;;;;;7.58;3.90;;;;;;;-1.75;61.49;100359.78;1736096;80;21134;-59
2022/01/23 01:13:06;;;;;;;9.30;4.10;;;;;;;-1.77;61.34;100360.25;1734118;80;21527;-59
2022/01/23 01:32:07;;;;;;;8.80;4.40;;;;;;;-1.77;61.56;100368.44;1699529;81;21126;-60
2022/01/23 01:37:00;;;;;;;8.25;4.45;;;;;;;-1.76;61.54;100370.98;1726242;81;21323;-59
2022/01/23 01:39:28;;;;;;;10.30;3.95;;;;;;;-1.75;61.64;100373.97;1729420;81;21541;-59
2022/01/23 01:41:55;;;;;;;8.85;4.05;;;;;;;-1.73;61.57;100381.64;1724728;81;21042;-58
2022/01/23 01:44:23;;;;;;;9.65;4.03;;;;;;;-1.68;61.50;100383.66;1728211;81;21142;-59
2022/01/23 01:46:57;;;;;;;8.58;4.05;;;;;;;-1.67;61.40;100385.80;1734676;80;21106;-59
2022/01/23 01:49:29;;;;;;;8.73;4.60;;;;;;;-1.70;61.26;100389.30;1730471;81;21239;-59
2022/01/23 01:51:56;;;;;;;9.50;4.25;;;;;;;-1.69;61.28;100382.80;1726148;81;21063;-59
2022/01/23 01:54:25;;;;;;;10.82;4.53;;;;;;;-1.69;61.22;100382.80;1728142;81;21081;-59
2022/01/23 01:57:06;;;;;;;10.10;4.75;;;;;;;-1.71;61.20;100381.17;1702431;82;21053;-57
2022/01/23 01:59:48;;;;;;;9.68;3.87;;;;;;;-1.73;61.39;100381.64;1730979;81;21041;-58
2022/01/23 02:03:21;;;;;;;8.98;4.15;;;;;;;-1.69;61.44;100381.51;1689444;83;21176;-58
2022/01/23 02:10:30;;;;;;;7.70;4.42;;;;;;;-1.79;61.16;100387.83;1731982;81;21053;-59
2022/01/23 02:13:22;;;;;;;8.78;4.53;;;;;;;-1.79;61.23;100390.41;1707783;81;21115;-58
2022/01/23 02:18:00;;;;;;;9.58;4.47;;;;;;;-1.80;61.30;100392.61;1617060;83;21048;-59
2022/01/23 02:23:41;;;;;;;8.95;4.20;;;;;;;-1.79;61.55;100400.73;1697715;81;21100;-58
2022/01/23 02:50:50;;;;;;;8.30;3.75;;;;;;;-1.90;61.03;100437.58;1658907;84;21087;-59
2022/01/23 02:56:01;;;;;;;10.50;5.15;;;;;;;-1.99;60.77;100431.40;1667552;84;21523;-59
2022/01/23 02:58:35;;;;;;;15.23;5.62;;;;;;;-2.02;60.75;100444.37;1679660;84;21028;-59
2022/01/23 03:01:15;;;;;;;9.48;5.17;;;;;;;-2.04;60.93;100436.67;1678499;84;22631;-59
2022/01/23 03:04:03;;;;;;;12.65;5.50;;;;;;;-2.00;61.10;100443.45;1581758;88;21078;-59
2022/01/23 03:06:57;;;;;;;10.68;5.17;;;;;;;-1.99;61.12;100442.55;1592755;88;21775;-59
2022/01/23 03:14:37;;;;;;;9.28;5.53;;;;;;;-2.03;61.35;100442.67;1670619;84;21139;-59
2022/01/23 03:25:24;;;;;;;10.95;5.30;;;;;;;-1.84;61.58;100464.95;1637579;86;21080;-59
2022/01/23 03:32:49;;;;;;;16.90;8.88;;;;;;;-1.79;61.51;100472.13;1662925;84;21117;-59
2022/01/23 03:35:11;;;;;;;10.32;5.90;;;;;;;-1.72;61.06;100480.92;1626294;85;21503;-59
2022/01/23 03:37:38;;;;;;;11.95;5.50;;;;;;;-1.72;61.06;100480.92;1680229;84;21051;-58
2022/01/23 03:40:06;;;;;;;12.25;6.55;;;;;;;-1.69;61.20;100486.45;1665337;84;21117;-59
2022/01/23 03:42:36;;;;;;;13.40;5.03;;;;;;;-1.66;61.03;100485.09;1652935;85;21098;-59
2022/01/23 03:50:22;;;;;;;9.93;5.12;;;;;;;-1.61;60.96;100506.90;1625790;84;21112;-58
2022/01/23 03:52:50;;;;;;;13.32;5.22;;;;;;;-1.59;61.11;100508.98;1659660;84;21094;-58
2022/01/23 03:55:17;;;;;;;8.83;5.20;;;;;;;-1.55;61.24;100513.99;1660280;84;22229;-59
2022/01/23 03:57:43;;;;;;;9.43;4.80;;;;;;;-1.49;61.42;100518.16;1653912;85;21073;-59
2022/01/23 04:00:15;;;;;;;9.25;4.60;;;;;;;-1.45;61.42;100515.88;1678152;84;21099;-59
2022/01/23 04:02:40;;;;;;;13.38;5.50;;;;;;;-1.39;61.49;100523.45;1662179;84;21069;-59
2022/01/23 04:05:10;;;;;;;11.15;5.58;;;;;;;-1.39;61.49;100523.45;1667410;84;21050;-59
2022/01/23 04:07:37;;;;;;;10.50;5.17;;;;;;;-1.34;61.55;100531.08;1663172;84;21826;-58
2022/01/23 04:10:05;;;;;;;8.03;4.97;;;;;;;-1.28;61.42;100531.34;1663309;84;21571;-58
2022/01/23 04:15:18;;;;;;;10.17;5.53;;;;;;;-1.26;61.36;100534.30;1661087;84;21080;-59
2022/01/23 04:33:48;;;;;;;11.88;5.65;;;;;;;-1.18;61.22;100558.59;1647058;85;21686;-59
2022/01/23 05:01:11;;;;;;;11.38;5.47;;;;;;;-1.09;61.47;100594.49;1674953;84;21072;-59
2022/01/23 05:27:39;;;;;;;11.57;7.35;;;;;;;0.01;58.61;100651.50;1779215;77;23595;-53
2022/01/23 05:30:07;;;;;;;11.85;6.45;;;;;;;-0.20;59.01;100658.20;1757852;79;21046;-55
2022/01/23 05:32:40;;;;;;;13.53;7.05;;;;;;;-0.32;59.26;100660.72;1758711;79;21083;-55
2022/01/23 05:35:08;;;;;;;11.80;6.47;;;;;;;-0.41;59.40;100664.86;1761799;79;21037;-55
2022/01/23 05:37:37;;;;;;;12.15;6.58;;;;;;;-0.52;59.75;100664.33;1764438;78;21059;-55
2022/01/23 05:40:07;;;;;;;17.52;8.70;;;;;;;-0.57;60.00;100665.78;1763129;79;21090;-56
2022/01/23 05:42:36;;;;;;;15.30;7.65;;;;;;;-0.65;60.28;100675.49;1776178;78;21560;-53
2022/01/23 05:45:04;;;;;;;11.50;7.60;;;;;;;-0.86;60.29;100676.94;1771695;78;21156;-54
2022/01/23 05:47:32;;;;;;;9.13;5.10;;;;;;;-1.01;60.76;100684.66;1761518;78;21136;-53
2022/01/23 05:50:00;;;;;;;9.98;5.37;;;;;;;-1.01;60.76;100684.66;1772083;78;21521;-54
2022/01/23 05:52:46;;;;;;;9.90;5.85;;;;;;;-1.35;61.60;100704.47;1779244;78;21084;-54
2022/01/23 05:55:32;;;;;;;18.12;5.60;;;;;;;-1.35;61.60;100704.47;1740189;79;21155;-54
2022/01/23 05:58:04;;;;;;;10.93;5.40;;;;;;;-1.56;61.46;100711.48;1764827;78;21152;-54
2022/01/23 06:00:38;;;;;;;11.30;5.30;;;;;;;-1.80;61.45;100711.19;1763053;78;21288;-54
2022/01/23 06:03:07;;;;;;;12.53;5.67;;;;;;;-1.91;61.61;100717.03;1764741;79;20968;-53
2022/01/23 06:05:35;;;;;;;8.68;4.65;;;;;;;-2.00;62.04;100729.70;1733920;79;21117;-53
2022/01/23 06:08:04;;;;;;;13.78;6.62;;;;;;;-2.03;62.53;100736.63;1767746;79;21105;-54
2022/01/23 06:10:46;;;;;;;10.48;5.65;;;;;;;-2.06;62.98;100740.14;1764646;79;21279;-54
2022/01/23 06:12:59;;;;;;;10.85;4.92;;;;;;;-2.11;63.31;100733.80;1779552;78;21094;-54
2022/01/23 06:15:26;;;;;;;10.50;6.05;;;;;;;-2.15;63.85;100741.20;1769200;79;21086;-54
2022/01/23 06:17:53;;;;;;;9.68;4.67;;;;;;;-2.15;64.26;100751.52;1770992;79;21074;-54
2022/01/23 06:20:23;;;;;;;10.72;5.92;;;;;;;-2.10;64.22;100763.00;1709539;80;21076;-54
2022/01/23 06:22:52;;;;;;;11.25;7.30;;;;;;;-2.11;64.32;100762.61;1763230;79;23323;-55
2022/01/23 06:25:34;;;;;;;15.03;6.10;;;;;;;-2.10;64.18;100760.00;1727984;79;21155;-53
2022/01/23 06:28:34;;;;;;;14.70;7.50;;;;;;;-2.13;64.17;100763.09;1772278;79;21412;-53
2022/01/23 06:31:01;;;;;;;13.75;7.03;;;;;;;-2.20;64.50;100767.94;1731710;80;21109;-52
2022/01/23 06:33:27;;;;;;;11.65;6.50;;;;;;;-2.24;64.51;100765.87;1735559;79;21174;-52
2022/01/23 06:35:54;;;;;;;10.00;5.15;;;;;;;-2.22;64.33;100774.42;1713073;79;21113;-52
2022/01/23 06:38:20;;;;;;;11.38;6.58;;;;;;;-2.22;64.33;100773.13;1766026;79;21050;-53
2022/01/23 06:40:47;;;;;;;12.88;6.70;;;;;;;-2.21;64.57;100776.58;1734146;80;21112;-52
2022/01/23 06:43:15;;;;;;;13.75;6.92;;;;;;;-2.17;64.35;100779.06;1755314;79;21391;-52
2022/01/23 06:45:46;;;;;;;16.10;7.40;;;;;;;-2.17;64.18;100788.09;1724261;80;21084;-52
2022/01/23 06:48:13;;;;;;;10.58;5.80;;;;;;;-2.17;64.37;100795.83;1730445;80;21222;-54
2022/01/23 06:50:40;;;;;;;12.58;6.20;;;;;;;-2.15;64.29;100800.92;1766216;79;21117;-54
2022/01/23 06:53:06;;;;;;;11.50;6.75;;;;;;;-2.17;64.26;100806.56;1760634;79;21493;-52
2022/01/23 06:55:33;;;;;;;10.90;7.70;;;;;;;-2.18;64.45;100817.32;1739881;79;21643;-54
2022/01/23 06:58:00;;;;;;;11.88;6.67;;;;;;;-2.16;64.43;100814.27;1768109;79;21415;-53
2022/01/23 07:00:26;;;;;;;11.20;6.80;;;;;;;-2.17;64.52;100822.03;1764494;79;21305;-53
2022/01/23 07:03:12;;;;;;;11.68;6.55;;;;;;;-2.17;64.33;100824.61;1732040;79;21065;-52
2022/01/23 07:05:49;;;;;;;12.30;6.30;;;;;;;-2.25;64.46;100829.48;1722565;80;21089;-53
2022/01/23 07:08:18;;;;;;;13.60;7.28;;;;;;;-2.29;64.69;100836.02;1729914;80;21035;-53
2022/01/23 07:10:55;;;;;;;16.40;6.40;;;;;;;-2.28;64.85;100840.30;1680144;82;21018;-55
2022/01/23 07:13:26;;;;;;;11.68;6.47;;;;;;;-2.25;65.03;100845.41;1749818;80;21103;-52
2022/01/23 07:15:55;;;;;;;13.95;6.92;;;;;;;-2.25;64.78;100833.80;1746041;79;20988;-53
2022/01/23 07:18:25;;;;;;;10.82;6.22;;;;;;;-2.26;64.83;100845.82;1764391;79;21568;-55
2022/01/23 07:21:09;;;;;;;12.53;6.65;;;;;;;-2.26;64.97;100851.42;1768568;79;21548;-53
2022/01/23 07:23:37;;;;;;;11.48;7.03;;;;;;;-2.29;64.81;100854.05;1765365;79;22391;-54
2022/01/23 07:26:04;;;;;;;14.50;7.67;;;;;;;-2.31;64.93;100867.42;1736278;80;22302;-54
2022/01/23 07:28:40;;;;;;;13.95;7.70;;;;;;;-2.32;65.27;100874.73;1761407;79;21085;-53
2022/01/23 07:31:04;;;;;;;16.10;7.92;;;;;;;-2.32;65.32;100876.02;1734578;79;21101;-53
2022/01/23 07:33:29;;;;;;;14.23;7.12;;;;;;;-2.31;65.32;100880.31;1766412;79;21098;-53
2022/01/23 07:35:57;;;;;;;10.45;5.65;;;;;;;-2.28;65.29;100877.67;1767370;79;21117;-54
2022/01/23 07:38:25;;;;;;;12.40;6.87;;;;;;;-2.27;64.76;100881.94;1731635;80;21049;-53
2022/01/23 07:40:54;;;;;;;12.03;6.70;;;;;;;-2.27;65.21;100889.25;1767211;79;21119;-54
2022/01/23 07:43:22;;;;;;;18.55;7.22;;;;;;;-2.23;65.14;100896.94;1765027;79;21089;-53
2022/01/23 07:46:07;;;;;;;12.37;7.28;;;;;;;-2.20;65.09;100895.14;1731870;80;21077;-54
2022/01/23 07:48:52;;;;;;;18.30;7.85;;;;;;;-2.14;65.14;100902.73;1734410;79;21066;-53
2022/01/23 07:51:37;;;;;;;14.87;7.20;;;;;;;-2.06;64.98;100910.34;1766988;79;21053;-54
2022/01/23 07:54:15;;;;;;;14.13;8.60;;;;;;;-1.97;64.96;100906.73;1739602;78;21093;-53
2022/01/23 07:56:43;;;;;;;11.08;6.37;;;;;;;-1.89;64.76;100919.88;1752560;78;21806;-53
2022/01/23 07:59:15;;;;;;;12.45;8.33;;;;;;;-1.81;64.64;100917.16;1753945;80;21007;-56
2022/01/23 08:01:53;;;;;;;14.75;7.78;;;;;;;-1.73;64.21;100923.43;1762722;79;21023;-54
2022/01/23 08:04:38;;;;;;;14.17;8.57;;;;;;;-1.69;64.02;100927.66;1769821;79;21113;-53
2022/01/23 08:07:22;;;;;;;13.75;8.33;;;;;;;-1.69;63.13;100927.66;1769383;79;21769;-53
2022/01/23 08:09:43;;;;;;;14.63;8.55;;;;;;;-1.66;63.08;100943.51;1762106;79;21084;-54
2022/01/23 08:12:10;;;;;;;14.23;7.50;;;;;;;-1.73;62.92;100947.94;1765700;79;21137;-55
2022/01/23 08:14:38;;;;;;;12.98;7.80;;;;;;;-1.82;63.02;100958.01;1769311;79;20995;-54
2022/01/23 08:17:05;;;;;;;12.98;7.15;;;;;;;-1.85;63.27;100962.38;1770008;79;21137;-54
2022/01/23 08:19:32;;;;;;;11.83;6.62;;;;;;;-1.85;63.53;100962.38;1767853;79;21498;-55
2022/01/23 08:21:59;;;;;;;11.97;6.87;;;;;;;-1.87;63.44;100967.16;1766469;79;21125;-54
2022/01/23 08:24:25;;;;;;;10.28;5.40;;;;;;;-1.85;63.62;100989.47;1757831;79;21132;-54
2022/01/23 08:26:52;;;;;;;8.08;4.15;;;;;;;-1.82;63.31;100996.70;1767204;79;21047;-54
2022/01/23 08:29:18;;;;;;;9.93;5.30;;;;;;;-1.82;62.91;100999.28;1768750;79;21114;-54
2022/01/23 08:31:45;;;;;;;9.10;5.00;;;;;;;-1.83;62.89;101002.77;1740092;79;21125;-54
2022/01/23 08:34:12;;;;;;;7.60;4.50;;;;;;;-1.82;62.82;101016.05;1766167;79;21047;-53
2022/01/23 08:36:39;;;;;;;6.80;4.15;;;;;;;-1.82;62.72;101020.37;1764065;79;21456;-54
2022/01/23 08:39:05;;;;;;;17.05;4.97;;;;;;;-1.80;62.70;101015.61;1766919;79;21044;-54
2022/01/23 08:41:50;;;;;;;9.60;3.15;;;;;;;-1.80;63.01;101018.61;1764601;79;23341;-53
2022/01/23 08:44:23;;;;;;;7.00;3.40;;;;;;;-1.71;62.83;101025.74;1767108;79;21071;-55
2022/01/23 08:46:50;;;;;;;7.10;3.60;;;;;;;-1.62;62.41;101029.03;1764987;79;21123;-55
2022/01/23 08:49:18;;;;;;;10.23;4.33;;;;;;;-1.56;62.32;101034.09;1739673;80;21082;-55
2022/01/23 08:51:46;;;;;;;6.70;3.33;;;;;;;-1.51;62.24;101038.27;1789753;78;21049;-55
2022/01/23 08:54:12;;;;;;;9.05;4.42;;;;;;;-1.43;61.75;101042.00;1762202;79;21521;-56
2022/01/23 08:56:38;;;;;;;7.08;3.25;;;;;;;-1.49;61.33;101044.69;1736007;80;21540;-55
2022/01/23 08:59:05;;;;;;;6.12;3.15;;;;;;;-1.49;61.33;101044.69;1736355;80;21576;-59
2022/01/23 09:01:34;;;;;;;7.55;3.35;;;;;;;-1.45;61.50;101042.90;1763680;79;21392;-55
2022/01/23 09:04:01;;;;;;;8.60;3.37;;;;;;;-1.45;61.50;101042.90;1764840;79;21138;-55
2022/01/23 09:06:28;;;;;;;7.83;3.62;;;;;;;-1.43;61.34;101054.03;1786310;78;21144;-54
2022/01/23 09:08:55;;;;;;;9.25;3.58;;;;;;;-1.43;61.50;101059.20;1786191;78;21637;-54
2022/01/23 09:11:37;;;;;;;;;;;;;;;;;;;;;
2022/01/23 09:14:17;;;;;;;7.72;3.52;;;;;;;-1.32;61.26;101059.84;1770225;78;21538;-56
2022/01/23 09:16:44;;;;;;;7.20;3.37;;;;;;;-1.26;61.14;101057.57;1770002;79;21109;-54
2022/01/23 09:19:10;;;;;;;6.45;3.22;;;;;;;-1.21;60.98;101059.20;1772630;79;21134;-55
2022/01/23 09:21:38;;;;;;;9.70;3.95;;;;;;;-1.16;60.96;101063.83;1776683;79;21115;-55
2022/01/23 09:24:06;;;;;;;6.97;3.50;;;;;;;-1.11;60.92;101063.70;1768210;79;21123;-55
2022/01/23 09:26:36;;;;;;;8.20;3.60;;;;;;;-1.02;60.68;101079.03;1769661;79;21079;-54
2022/01/23 09:29:12;;;;;;;9.08;3.72;;;;;;;-1.02;60.68;101079.03;1770836;79;21103;-54
2022/01/23 09:31:45;;;;;;;8.30;3.67;;;;;;;-0.89;60.61;101060.67;1772294;79;21111;-55
2022/01/23 09:34:00;;;;;;;7.92;4.05;;;;;;;-0.89;60.61;101060.67;1767563;79;21075;-55
2022/01/23 09:36:28;;;;;;;7.35;4.00;;;;;;;-0.86;60.68;101063.20;1774130;79;21142;-55
2022/01/23 09:38:54;;;;;;;8.00;4.33;;;;;;;-0.85;60.78;101064.91;1772005;79;21569;-55
2022/01/23 09:41:24;;;;;;;6.75;3.00;;;;;;;-0.84;60.60;101061.01;1770371;79;21068;-55
2022/01/23 09:43:50;;;;;;;7.50;3.50;;;;;;;-0.82;60.57;101072.15;1777764;79;22282;-55
2022/01/23 09:46:17;;;;;;;7.90;3.72;;;;;;;-0.78;60.68;101071.19;1759576;79;21053;-55
2022/01/23 09:48:44;;;;;;;11.80;5.33;;;;;;;-0.71;61.17;101073.64;1779646;79;21047;-55
2022/01/23 09:51:10;;;;;;;21.25;11.43;;;;;;;-0.52;61.15;101076.66;1777696;79;21048;-53
2022/01/23 09:53:39;;;;;;;9.05;4.58;;;;;;;-0.52;61.15;101076.66;1761778;79;21075;-52
2022/01/23 09:56:06;;;;;;;7.62;4.37;;;;;;;-0.45;61.74;101073.07;1773723;79;21163;-53
2022/01/23 09:58:33;;;;;;;8.25;4.08;;;;;;;-0.40;62.05;101081.56;1781685;78;21360;-52
2022/01/23 10:01:00;;;;;;;11.93;7.05;;;;;;;-0.47;62.22;101078.69;1778250;79;21377;-54
2022/01/23 10:03:26;;;;;;;11.80;6.58;;;;;;;-0.59;62.59;101084.99;1754551;79;21086;-53
2022/01/23 10:05:54;;;;;;;8.78;4.35;;;;;;;-0.69;63.21;101088.25;1745392;79;21145;-54
2022/01/23 10:08:24;;;;;;;10.40;5.37;;;;;;;-0.69;63.21;101088.25;1767144;79;21127;-53
2022/01/23 10:10:52;;;;;;;12.85;7.28;;;;;;;-0.67;63.37;101083.89;1783098;79;21483;-55
2022/01/23 10:13:24;;;;;;;9.48;5.30;;;;;;;-0.60;63.43;101081.56;1774182;78;21015;-54
2022/01/23 10:15:51;;;;;;;10.35;5.65;;;;;;;-0.52;63.31;101084.41;1779336;78;21115;-54
2022/01/23 10:18:18;;;;;;;8.88;4.53;;;;;;;-0.51;63.43;101090.00;1780152;78;21077;-54
2022/01/23 10:20:46;;;;;;;10.82;6.12;;;;;;;-0.58;61.92;101095.30;1776516;78;23190;-54
2022/01/23 10:23:14;;;;;;;12.10;7.08;;;;;;;-0.58;61.92;101095.30;1753492;79;21097;-54
2022/01/23 10:25:42;;;;;;;12.45;5.67;;;;;;;-0.61;61.40;101102.28;1780962;78;21097;-54
2022/01/23 10:28:18;;;;;;;11.28;6.42;;;;;;;-0.65;61.44;101105.38;1781595;78;21508;-54
2022/01/23 10:30:54;;;;;;;8.60;5.53;;;;;;;-0.64;61.27;101101.92;1739284;80;21590;-54
2022/01/23 10:33:24;;;;;;;9.48;4.97;;;;;;;-0.66;60.96;101107.99;1783498;78;21896;-54
2022/01/23 10:36:04;;;;;;;12.95;7.30;;;;;;;-0.68;60.97;101111.06;1758699;79;21321;-53
2022/01/23 10:38:42;;;;;;;10.38;5.70;;;;;;;-0.67;60.85;101105.86;1758276;79;21120;-52
2022/01/23 10:47:31;;;;;;;9.48;4.90;;;;;;;-0.50;60.40;101126.17;1756567;80;23362;-51
2022/01/23 10:49:50;;;;;;;12.55;6.03;;;;;;;-0.48;59.97;101125.69;1744636;80;21097;-51
2022/01/23 10:52:32;;;;;;;9.23;5.30;;;;;;;-0.43;59.70;101137.22;1737893;81;21072;-51
2022/01/23 10:55:17;;;;;;;14.47;6.83;;;;;;;-0.46;59.79;101148.92;1752617;79;21089;-51
2022/01/23 10:57:45;;;;;;;9.75;5.42;;;;;;;-0.41;59.83;101152.25;1762441;80;21064;-52
2022/01/23 11:00:36;;;;;;;11.12;6.78;;;;;;;-0.40;59.61;101150.93;1764401;79;21120;-52
2022/01/23 11:03:22;;;;;;;9.80;6.00;;;;;;;-0.46;59.91;101156.23;1755890;79;21529;-51
2022/01/23 11:05:49;;;;;;;9.85;4.65;;;;;;;-0.46;59.91;101156.23;1756426;80;21084;-52
2022/01/23 11:08:30;;;;;;;9.40;4.42;;;;;;;-0.51;59.30;101157.22;1769174;80;21116;-51
2022/01/23 11:11:00;;;;;;;7.53;3.95;;;;;;;-0.69;58.58;101181.30;1748550;80;21052;-51
2022/01/23 11:19:39;;;;;;;8.03;4.22;;;;;;;-0.69;59.46;101187.76;1734860;81;21083;-55
2022/01/23 11:22:00;;;;;;;8.00;3.40;;;;;;;-0.67;58.67;101192.87;1731149;81;21081;-52
2022/01/23 11:24:41;;;;;;;8.83;4.58;;;;;;;-0.69;59.07;101199.81;1738371;80;21619;-53
2022/01/23 11:27:08;;;;;;;8.75;4.90;;;;;;;-0.63;59.52;101202.28;1713516;81;21073;-53
2022/01/23 11:29:35;;;;;;;7.20;4.00;;;;;;;-0.61;58.39;101215.56;1734108;81;21061;-53
2022/01/23 11:32:02;;;;;;;9.10;4.12;;;;;;;-0.61;58.39;101215.56;1729933;82;21144;-53
2022/01/23 11:34:32;;;;;;;10.32;4.53;;;;;;;-0.67;58.01;101214.42;1729394;81;21084;-57
2022/01/23 11:36:58;;;;;;;7.75;4.00;;;;;;;-0.67;58.01;101214.42;1735508;81;21046;-54
2022/01/23 11:39:39;;;;;;;7.12;3.87;;;;;;;-0.64;58.29;101216.95;1717812;81;21197;-53
2022/01/23 11:56:35;;;;;;;8.23;4.08;;;;;;;-0.78;57.75;101241.75;1722616;81;21599;-54
2022/01/23 11:59:25;;;;;;;6.42;3.90;;;;;;;-0.76;57.60;101247.77;1778379;78;21573;-53
2022/01/23 12:02:14;;;;;;;7.35;3.83;;;;;;;-0.79;57.45;101254.70;1780342;78;21723;-56
2022/01/23 12:04:43;;;;;;;6.25;3.60;;;;;;;-0.82;57.62;101258.66;1741816;80;21125;-54
2022/01/23 12:07:17;;;;;;;7.78;3.52;;;;;;;-0.85;57.46;101251.80;1728288;80;21326;-55
2022/01/23 12:10:25;;;;;;;7.77;3.90;;;;;;;-0.85;57.46;101251.80;1780930;78;21629;-54
2022/01/23 12:12:50;;;;;;;8.55;4.08;;;;;;;-0.83;57.71;101254.36;1779254;78;21048;-53
2022/01/23 12:18:21;;;;;;;7.65;4.03;;;;;;;-0.76;57.86;101261.10;1766735;79;21541;-53
2022/01/23 12:20:50;;;;;;;9.50;3.77;;;;;;;-0.66;57.81;101271.67;1741188;80;21139;-55
2022/01/23 12:23:17;;;;;;;8.30;4.12;;;;;;;-0.62;57.28;101275.08;1721051;81;21533;-55
2022/01/23 12:25:49;;;;;;;9.55;4.70;;;;;;;-0.65;57.22;101271.25;1777135;78;21543;-53
2022/01/23 12:28:24;;;;;;;13.35;5.42;;;;;;;-0.64;57.25;101282.86;1744536;81;21039;-54
2022/01/23 12:30:59;;;;;;;10.32;4.65;;;;;;;-0.63;56.95;101292.75;1740762;80;21094;-54
2022/01/23 12:33:31;;;;;;;8.25;4.65;;;;;;;-0.68;57.17;101299.74;1775321;78;21305;-53
2022/01/23 12:36:19;;;;;;;7.65;4.53;;;;;;;-0.68;57.05;101308.34;1769380;79;21047;-53
2022/01/23 12:38:50;;;;;;;10.25;4.35;;;;;;;-0.62;57.14;101309.98;1722369;81;21089;-54
2022/01/23 12:41:34;;;;;;;8.08;3.25;;;;;;;-0.52;56.38;101314.09;1776969;78;21568;-53
2022/01/23 12:44:25;;;;;;;9.73;4.17;;;;;;;-0.52;56.38;101314.09;1768299;79;21629;-54
2022/01/23 12:46:57;;;;;;;9.95;5.17;;;;;;;-0.57;56.16;101332.27;1770905;79;21147;-53
2022/01/23 12:49:30;;;;;;;8.00;3.70;;;;;;;-0.60;55.84;101336.64;1781785;78;21106;-54
2022/01/23 12:52:12;;;;;;;8.18;4.40;;;;;;;-0.63;56.17;101332.81;1791286;78;21082;-57
2022/01/23 12:54:52;;;;;;;11.73;6.05;;;;;;;-0.63;56.35;101347.03;1750373;80;21113;-55
2022/01/23 12:57:37;;;;;;;10.50;5.17;;;;;;;-0.65;56.23;101349.64;1782972;78;21161;-57
2022/01/23 13:00:04;;;;;;;10.98;6.22;;;;;;;-0.69;56.83;101358.34;1783313;78;21125;-52
2022/01/23 13:02:38;;;;;;;38.42;23.70;;;;;;;-0.75;56.64;101353.27;1720921;81;21077;-53
2022/01/23 13:05:00;;;;;;;7.35;3.85;;;;;;;-0.84;56.51;101362.47;1747008;80;20998;-53
2022/01/23 13:10:03;;;;;;;8.80;4.95;;;;;;;-0.97;56.86;101367.00;1734577;81;21580;-54
2022/01/23 13:32:46;;;;;;;8.60;4.72;;;;;;;-1.05;57.41;101423.95;1763163;79;21020;-52
2022/01/23 13:35:07;;;;;;;10.88;4.62;;;;;;;-1.05;57.41;101423.95;1764284;79;20998;-51
2022/01/23 13:37:35;;;;;;;10.25;5.85;;;;;;;-1.04;57.74;101434.70;1737342;80;21043;-52
2022/01/23 13:40:12;;;;;;;16.15;8.20;;;;;;;-1.04;57.95;101438.58;1737767;80;21110;-51
2022/01/23 13:47:53;;;;;;;9.08;4.92;;;;;;;-1.11;58.01;101448.56;1750001;81;21057;-51
2022/01/23 13:59:54;;;;;;;9.95;4.87;;;;;;;-1.37;59.03;101464.44;1756379;80;21057;-63
2022/01/23 14:02:38;;;;;;;10.23;4.80;;;;;;;-1.38;59.18;101478.21;1748815;80;21063;-62
2022/01/23 14:05:15;;;;;;;11.53;5.53;;;;;;;-1.39;59.17;101479.95;1725627;81;21012;-65
2022/01/23 14:07:48;;;;;;;9.50;4.95;;;;;;;-1.33;58.95;101496.66;1759547;80;21108;-65
2022/01/23 14:10:18;;;;;;;11.12;4.70;;;;;;;-1.30;58.84;101502.21;1757811;80;21038;-62
2022/01/23 14:12:47;;;;;;;11.88;4.78;;;;;;;-1.30;58.84;101502.21;1746795;80;21068;-64
2022/01/23 14:15:19;;;;;;;8.20;4.58;;;;;;;-1.32;59.07;101494.48;1755738;79;21063;-66
2022/01/23 14:18:07;;;;;;;7.50;4.35;;;;;;;-1.48;59.40;101494.25;1762967;79;21443;-65
2022/01/23 14:20:42;;;;;;;8.50;4.08;;;;;;;-1.48;59.40;101494.25;1758360;79;21037;-63
2022/01/23 14:23:16;;;;;;;7.20;3.98;;;;;;;-1.58;59.73;101498.69;1754137;79;21070;-67
2022/01/23 14:25:47;;;;;;;8.03;4.12;;;;;;;-1.63;59.80;101495.73;1754279;79;21068;-65
2022/01/23 14:28:18;;;;;;;8.83;4.03;;;;;;;-1.66;59.94;101498.34;1730060;79;21062;-64
2022/01/23 14:30:48;;;;;;;6.85;3.85;;;;;;;-1.67;59.85;101496.65;1754903;79;21055;-64
2022/01/23 14:33:30;;;;;;;8.95;4.00;;;;;;;-1.69;60.09;101497.95;1752992;79;21097;-65
2022/01/23 14:35:57;;;;;;;7.92;3.83;;;;;;;-1.69;60.06;101501.37;1752740;79;21094;-64
2022/01/23 14:38:26;;;;;;;12.73;6.50;;;;;;;-1.69;60.06;101501.37;1755977;81;21100;-65
2022/01/23 14:41:02;;;;;;;7.42;4.45;;;;;;;-1.65;60.39;101505.22;1724794;81;21057;-64
2022/01/23 14:43:39;;;;;;;7.05;3.87;;;;;;;-1.62;60.33;101506.48;1759154;79;21058;-65
2022/01/23 14:46:08;;;;;;;10.30;4.62;;;;;;;-1.61;60.24;101506.91;1747843;79;21098;-63
2022/01/23 14:48:48;;;;;;;8.43;4.60;;;;;;;-1.62;60.25;101514.23;1752270;79;21055;-65
2022/01/23 14:51:20;;;;;;;12.10;7.10;;;;;;;-1.65;60.26;101514.25;1752692;79;21090;-65
2022/01/23 14:53:46;;;;;;;8.13;4.35;;;;;;;-1.64;60.34;101525.01;1755442;79;22157;-66
2022/01/23 14:56:14;;;;;;;8.40;3.90;;;;;;;-1.64;60.34;101525.01;1765328;79;21552;-64
2022/01/23 14:58:42;;;;;;;14.33;6.62;;;;;;;-1.65;59.79;101539.62;1754122;80;21083;-65
2022/01/23 15:01:12;;;;;;;7.28;4.22;;;;;;;-1.65;59.79;101539.62;1753279;79;21011;-66
2022/01/23 15:03:44;;;;;;;8.08;4.20;;;;;;;-1.65;59.77;101541.35;1754941;79;21028;-65
2022/01/23 15:06:11;;;;;;;8.08;4.30;;;;;;;-1.69;60.16;101538.80;1745389;79;21062;-65
2022/01/23 15:08:38;;;;;;;10.80;4.95;;;;;;;-1.67;60.09;101540.52;1750573;79;21541;-65
2022/01/23 15:11:05;;;;;;;7.58;3.98;;;;;;;-1.67;60.20;101541.37;1751343;79;22095;-64
2022/01/23 15:13:31;;;;;;;7.97;4.17;;;;;;;-1.66;60.14;101546.08;1752474;79;21027;-63
2022/01/23 15:15:58;;;;;;;10.65;5.08;;;;;;;-1.75;60.19;101554.78;1763655;80;22239;-64
2022/01/23 15:18:25;;;;;;;7.90;4.22;;;;;;;-1.71;60.50;101562.48;1764722;79;21556;-62
2022/01/23 15:20:51;;;;;;;8.53;4.65;;;;;;;-1.69;60.61;101565.05;1761816;79;21031;-62
2022/01/23 15:23:18;;;;;;;9.88;4.83;;;;;;;-1.70;60.76;101574.53;1763954;79;21080;-62
2022/01/23 15:25:45;;;;;;;11.55;5.65;;;;;;;-1.70;60.76;101574.53;1764659;79;21051;-62